Time;durP1;ratioP1;P1;durP2;ratioP2;P2;SDS_P1;SDS_P2;PMS_P1;PMS_P2;Temp;Humidity;BMP_temperature;BMP_pressure;BME280_temperature;BME280_humidity;BME280_pressure;Samples;Min_cycle;Max_cycle;Signal;HPM_P1;HPM_P2
2021/12/16 00:03:06;;;;;;;20.77;7.83;;;;;;;;;;10361795;28;20215;-71
2021/12/16 00:08:17;;;;;;;25.43;7.50;;;;;;;;;;10360621;28;20068;-71
2021/12/16 00:34:58;;;;;;;22.80;7.43;;;;;;;;;;10352014;28;20444;-71
2021/12/16 00:40:01;;;;;;;26.47;8.43;;;;;;;;;;10368391;28;20777;-69
2021/12/16 00:45:27;;;;;;;23.38;7.70;;;;;;;;;;10368659;28;20173;-71
2021/12/16 00:55:54;;;;;;;23.97;8.50;;;;;;;;;;10363504;28;20104;-70
2021/12/16 01:01:06;;;;;;;24.50;7.97;;;;;;;;;;10367192;28;20046;-70
2021/12/16 01:38:45;;;;;;;24.10;8.30;;;;;;;;;;10362675;28;20046;-70
2021/12/16 01:49:30;;;;;;;29.05;9.60;;;;;;;;;;10361482;28;20054;-72
2021/12/16 01:54:52;;;;;;;23.37;8.27;;;;;;;;;;10358378;28;20069;-70
2021/12/16 02:00:03;;;;;;;27.07;9.17;;;;;;;;;;10363072;28;20129;-71
2021/12/16 02:05:24;;;;;;;27.70;8.90;;;;;;;;;;10365210;28;20129;-70
2021/12/16 02:10:33;;;;;;;25.10;8.40;;;;;;;;;;10361964;28;20038;-69
2021/12/16 02:31:52;;;;;;;24.37;9.00;;;;;;;;;;10361641;28;20144;-69
2021/12/16 02:36:56;;;;;;;24.23;8.23;;;;;;;;;;10365308;28;20411;-70
2021/12/16 02:42:03;;;;;;;23.17;7.73;;;;;;;;;;10364785;28;20068;-69
2021/12/16 02:52:41;;;;;;;26.27;8.73;;;;;;;;;;10283309;28;20239;-70
2021/12/16 02:57:49;;;;;;;31.37;8.87;;;;;;;;;;10362635;28;20113;-70
2021/12/16 03:02:52;;;;;;;29.60;9.23;;;;;;;;;;10361704;28;20124;-71
2021/12/16 03:07:57;;;;;;;20.20;7.05;;;;;;;;;;10372122;28;20071;-70
2021/12/16 03:13:04;;;;;;;24.23;7.63;;;;;;;;;;10367318;28;20133;-70
2021/12/16 03:18:16;;;;;;;19.83;6.32;;;;;;;;;;10361767;28;20045;-67
2021/12/16 03:23:36;;;;;;;29.43;8.97;;;;;;;;;;10369328;28;20088;-68
2021/12/16 03:29:11;;;;;;;27.67;7.47;;;;;;;;;;10364376;28;20401;-67
2021/12/16 03:39:39;;;;;;;25.27;8.53;;;;;;;;;;10353806;28;20042;-70
2021/12/16 03:44:57;;;;;;;39.27;10.50;;;;;;;;;;10358872;28;20105;-70
2021/12/16 03:50:01;;;;;;;35.23;11.07;;;;;;;;;;10346739;28;20452;-70
2021/12/16 03:55:07;;;;;;;30.95;9.80;;;;;;;;;;10361017;28;20052;-71
2021/12/16 04:00:12;;;;;;;28.63;10.93;;;;;;;;;;10359751;28;20139;-72
2021/12/16 04:05:15;;;;;;;30.30;10.10;;;;;;;;;;10357225;28;20061;-70
2021/12/16 04:10:32;;;;;;;23.77;8.17;;;;;;;;;;10358730;28;20050;-70
2021/12/16 04:15:35;;;;;;;20.60;7.67;;;;;;;;;;10360031;28;20299;-68
2021/12/16 04:20:39;;;;;;;23.80;7.60;;;;;;;;;;10354161;28;20054;-71
2021/12/16 04:25:44;;;;;;;27.25;8.32;;;;;;;;;;10356804;28;20459;-69
2021/12/16 04:30:47;;;;;;;14.60;4.63;;;;;;;;;;10357358;28;20192;-70
2021/12/16 04:35:51;;;;;;;17.53;5.57;;;;;;;;;;10360616;28;20595;-70
2021/12/16 04:40:55;;;;;;;14.90;5.50;;;;;;;;;;10362969;28;20056;-71
2021/12/16 04:45:58;;;;;;;15.07;5.13;;;;;;;;;;10361123;28;20163;-70
2021/12/16 04:51:02;;;;;;;13.27;4.47;;;;;;;;;;10364359;28;20056;-70
2021/12/16 04:56:08;;;;;;;10.90;3.90;;;;;;;;;;10356716;28;20072;-71
2021/12/16 05:01:12;;;;;;;14.17;4.83;;;;;;;;;;10356485;28;20397;-70
2021/12/16 05:06:15;;;;;;;12.07;3.77;;;;;;;;;;10359840;28;20343;-71
2021/12/16 05:11:20;;;;;;;15.70;5.40;;;;;;;;;;10354424;28;20061;-71
2021/12/16 05:16:23;;;;;;;18.73;5.40;;;;;;;;;;10362440;28;20050;-71
2021/12/16 05:21:49;;;;;;;12.80;4.50;;;;;;;;;;10359965;28;20064;-72
2021/12/16 05:26:54;;;;;;;14.63;4.23;;;;;;;;;;10362408;28;20132;-68
2021/12/16 05:31:57;;;;;;;9.27;3.17;;;;;;;;;;10362115;28;20056;-68
2021/12/16 05:37:04;;;;;;;14.13;4.73;;;;;;;;;;10367013;28;20073;-70
2021/12/16 05:42:09;;;;;;;14.50;4.73;;;;;;;;;;10367216;28;20056;-71
2021/12/16 05:47:12;;;;;;;14.67;4.27;;;;;;;;;;10363127;28;20053;-71
2021/12/16 05:52:15;;;;;;;15.70;5.07;;;;;;;;;;10360514;28;20348;-72
2021/12/16 05:57:19;;;;;;;13.80;4.83;;;;;;;;;;10358772;28;20049;-71
2021/12/16 06:02:22;;;;;;;15.80;5.67;;;;;;;;;;10364637;28;20407;-71
2021/12/16 06:07:25;;;;;;;17.23;5.60;;;;;;;;;;10359524;28;20067;-71
2021/12/16 06:12:30;;;;;;;18.07;5.70;;;;;;;;;;10365112;28;20054;-70
2021/12/16 06:28:12;;;;;;;18.27;5.27;;;;;;;;;;10362173;28;20054;-71
2021/12/16 06:33:17;;;;;;;18.37;6.20;;;;;;;;;;10358298;28;20483;-71
2021/12/16 06:38:21;;;;;;;20.77;6.20;;;;;;;;;;10365007;28;20060;-68
2021/12/16 06:43:25;;;;;;;19.73;5.90;;;;;;;;;;10364004;28;20470;-73
2021/12/16 06:48:32;;;;;;;17.83;5.75;;;;;;;;;;10364749;28;20509;-70
2021/12/16 06:53:47;;;;;;;19.40;5.90;;;;;;;;;;10365853;28;20049;-70
2021/12/16 06:59:03;;;;;;;16.70;5.50;;;;;;;;;;10359411;28;20068;-70
2021/12/16 07:04:08;;;;;;;16.30;5.07;;;;;;;;;;10357110;28;20528;-70
2021/12/16 07:09:13;;;;;;;19.85;6.35;;;;;;;;;;10361047;28;20050;-71
2021/12/16 07:14:19;;;;;;;27.70;8.33;;;;;;;;;;10364661;28;20130;-74
2021/12/16 07:19:22;;;;;;;8.00;3.23;;;;;;;;;;10361104;28;20117;-71
2021/12/16 07:24:24;;;;;;;6.03;2.43;;;;;;;;;;10362953;28;20054;-71
2021/12/16 07:29:29;;;;;;;10.33;3.83;;;;;;;;;;10359024;28;20348;-71
2021/12/16 07:34:31;;;;;;;;;;;;;;;;;;10361315;28;20070;-70
2021/12/16 07:39:38;;;;;;;9.87;3.27;;;;;;;;;;10340292;28;19922;-70
2021/12/16 07:44:45;;;;;;;9.23;3.00;;;;;;;;;;10358717;28;20054;-70
2021/12/16 07:49:47;;;;;;;;;;;;;;;;;;10350301;28;20065;-70
2021/12/16 07:54:50;;;;;;;7.77;2.83;;;;;;;;;;10352011;28;19936;-70
2021/12/16 07:59:54;;;;;;;7.77;2.50;;;;;;;;;;10356046;28;20671;-70
2021/12/16 08:04:57;;;;;;;5.00;2.17;;;;;;;;;;10357011;28;20049;-70
2021/12/16 08:10:00;;;;;;;8.87;2.80;;;;;;;;;;10354119;28;20054;-70
2021/12/16 08:15:05;;;;;;;6.30;2.60;;;;;;;;;;10358057;28;20096;-70
2021/12/16 08:20:28;;;;;;;4.95;1.85;;;;;;;;;;10348624;28;20045;-71
2021/12/16 08:25:31;;;;;;;4.53;1.85;;;;;;;;;;10354470;28;20050;-71
2021/12/16 08:30:56;;;;;;;7.15;2.30;;;;;;;;;;10347882;28;20391;-70
2021/12/16 08:36:19;;;;;;;13.10;4.30;;;;;;;;;;10346004;28;20443;-70
2021/12/16 08:41:26;;;;;;;7.93;2.65;;;;;;;;;;10324928;28;20108;-70
2021/12/16 08:46:32;;;;;;;4.80;2.27;;;;;;;;;;10348263;28;20050;-70
2021/12/16 08:51:36;;;;;;;5.80;2.43;;;;;;;;;;10377951;23;20061;-71
2021/12/16 08:56:40;;;;;;;2.38;1.33;;;;;;;;;;10302359;28;20100;-71
2021/12/16 09:01:46;;;;;;;7.28;3.17;;;;;;;;;;10364461;28;20034;-74
2021/12/16 09:06:49;;;;;;;7.40;2.08;;;;;;;;;;10342001;28;20051;-72
2021/12/16 09:12:07;;;;;;;6.63;2.47;;;;;;;;;;10285789;28;100901;-72
2021/12/16 09:17:13;;;;;;;11.30;3.90;;;;;;;;;;10242138;28;20420;-72
2021/12/16 09:22:17;;;;;;;7.45;2.30;;;;;;;;;;10241868;28;20138;-72
2021/12/16 09:27:22;;;;;;;6.22;2.28;;;;;;;;;;10250479;28;20062;-71
2021/12/16 09:32:29;;;;;;;9.27;3.40;;;;;;;;;;10273404;28;20053;-71
2021/12/16 09:37:32;;;;;;;8.35;3.20;;;;;;;;;;10290040;28;20027;-70
2021/12/16 09:42:37;;;;;;;9.53;3.33;;;;;;;;;;10260490;28;20043;-72
2021/12/16 09:47:43;;;;;;;11.75;4.00;;;;;;;;;;10248061;28;20042;-71
2021/12/16 09:52:46;;;;;;;5.97;2.72;;;;;;;;;;10244539;28;20046;-71
2021/12/16 09:57:49;;;;;;;8.55;3.78;;;;;;;;;;10241665;28;20319;-71
2021/12/16 10:02:54;;;;;;;4.00;1.98;;;;;;;;;;10257411;28;20126;-72
2021/12/16 10:07:57;;;;;;;6.95;2.67;;;;;;;;;;10243891;28;20106;-73
2021/12/16 10:13:02;;;;;;;11.40;3.40;;;;;;;;;;10237600;28;20491;-73
2021/12/16 10:18:08;;;;;;;9.55;3.45;;;;;;;;;;10245768;28;20143;-70
2021/12/16 10:23:12;;;;;;;7.88;3.17;;;;;;;;;;10237549;28;20077;-71
2021/12/16 10:28:17;;;;;;;6.28;2.58;;;;;;;;;;10239948;28;20043;-70
2021/12/16 10:33:32;;;;;;;6.40;2.38;;;;;;;;;;10246255;28;20094;-71
2021/12/16 10:38:36;;;;;;;6.15;2.60;;;;;;;;;;10256157;28;20076;-72
2021/12/16 10:43:41;;;;;;;8.57;3.28;;;;;;;;;;10249663;28;20035;-71
2021/12/16 10:48:47;;;;;;;7.45;3.08;;;;;;;;;;10242835;28;20070;-73
2021/12/16 10:54:00;;;;;;;10.80;4.35;;;;;;;;;;10251742;28;20536;-71
2021/12/16 10:59:05;;;;;;;4.78;2.20;;;;;;;;;;10237246;28;20061;-72
2021/12/16 11:04:11;;;;;;;6.43;3.10;;;;;;;;;;10242995;28;20079;-72
2021/12/16 11:09:32;;;;;;;5.25;2.90;;;;;;;;;;10242186;28;20051;-70
2021/12/16 11:14:35;;;;;;;9.32;3.78;;;;;;;;;;10244098;28;20177;-72
2021/12/16 11:19:40;;;;;;;11.57;4.07;;;;;;;;;;10236491;28;20431;-71
2021/12/16 11:24:43;;;;;;;12.90;4.45;;;;;;;;;;10247006;28;20334;-72
2021/12/16 11:29:46;;;;;;;7.50;2.92;;;;;;;;;;10246965;28;20035;-72
2021/12/16 11:34:50;;;;;;;7.68;3.45;;;;;;;;;;10242832;28;20113;-72
2021/12/16 11:39:53;;;;;;;7.93;2.75;;;;;;;;;;10249994;28;20063;-72
2021/12/16 11:44:58;;;;;;;8.30;3.40;;;;;;;;;;10241617;28;20046;-72
2021/12/16 11:50:05;;;;;;;5.80;2.95;;;;;;;;;;10245303;28;20062;-73
2021/12/16 11:55:15;;;;;;;7.07;3.30;;;;;;;;;;10268219;28;20400;-72
2021/12/16 12:00:17;;;;;;;;;;;;;;;;;;10259132;28;20038;-71
2021/12/16 12:05:23;;;;;;;9.13;3.15;;;;;;;;;;10254769;28;19922;-72
2021/12/16 12:10:36;;;;;;;12.55;4.32;;;;;;;;;;10245618;28;20042;-72
2021/12/16 12:15:51;;;;;;;9.33;3.73;;;;;;;;;;10244854;28;20039;-72
2021/12/16 12:21:14;;;;;;;10.45;3.70;;;;;;;;;;10249725;28;20385;-71
2021/12/16 12:26:19;;;;;;;7.57;2.97;;;;;;;;;;10243567;28;20090;-72
2021/12/16 12:31:23;;;;;;;6.85;3.10;;;;;;;;;;10239635;28;20411;-72
2021/12/16 12:36:27;;;;;;;7.18;2.97;;;;;;;;;;10255445;28;20047;-71
2021/12/16 12:41:30;;;;;;;8.95;3.90;;;;;;;;;;10261246;28;20046;-72
2021/12/16 12:46:34;;;;;;;4.80;2.65;;;;;;;;;;10283844;28;20022;-71
2021/12/16 12:51:39;;;;;;;7.75;3.00;;;;;;;;;;10299331;28;20042;-73
2021/12/16 12:56:42;;;;;;;11.90;4.22;;;;;;;;;;10287276;28;20101;-71
2021/12/16 13:01:47;;;;;;;5.68;2.63;;;;;;;;;;10265722;28;20043;-72
2021/12/16 13:06:53;;;;;;;5.88;2.67;;;;;;;;;;10257719;28;20104;-72
2021/12/16 13:11:56;;;;;;;6.97;2.80;;;;;;;;;;10265605;28;20039;-72
2021/12/16 13:17:31;;;;;;;8.40;2.67;;;;;;;;;;10246733;28;20559;-72
2021/12/16 13:28:02;;;;;;;6.82;3.30;;;;;;;;;;10257799;28;20055;-71
2021/12/16 13:33:16;;;;;;;7.85;3.10;;;;;;;;;;10250534;28;20040;-72
2021/12/16 13:38:22;;;;;;;6.93;3.08;;;;;;;;;;10270957;28;20043;-72
2021/12/16 13:43:27;;;;;;;7.53;3.17;;;;;;;;;;10261804;28;20054;-72
2021/12/16 13:48:44;;;;;;;6.68;3.15;;;;;;;;;;10236510;28;20039;-75
2021/12/16 14:04:53;;;;;;;5.85;2.65;;;;;;;;;;10212539;28;20051;-74
2021/12/16 14:10:05;;;;;;;5.82;2.70;;;;;;;;;;10245475;28;20050;-72
2021/12/16 14:15:18;;;;;;;8.50;2.80;;;;;;;;;;10250089;28;20047;-73
2021/12/16 14:26:11;;;;;;;7.18;3.30;;;;;;;;;;10245064;28;20126;-72
2021/12/16 14:42:14;;;;;;;8.50;3.28;;;;;;;;;;10240581;28;20062;-72
2021/12/16 14:47:41;;;;;;;10.63;3.58;;;;;;;;;;10234694;28;20039;-72
2021/12/16 14:52:45;;;;;;;7.03;3.00;;;;;;;;;;10232559;28;20039;-72
2021/12/16 14:57:52;;;;;;;11.93;3.95;;;;;;;;;;10250711;28;20484;-72
2021/12/16 15:03:00;;;;;;;9.48;3.80;;;;;;;;;;10239701;28;20035;-72
2021/12/16 15:08:05;;;;;;;3.97;1.52;;;;;;;;;;10239736;28;20113;-72
2021/12/16 15:13:16;;;;;;;3.78;1.73;;;;;;;;;;10274026;23;20455;-79
2021/12/16 15:40:14;;;;;;;8.20;3.10;;;;;;;;;;10317332;28;20134;-78
2021/12/16 15:45:23;;;;;;;10.17;3.60;;;;;;;;;;10318268;28;20051;-79
2021/12/16 15:50:27;;;;;;;9.67;3.87;;;;;;;;;;10321692;28;20039;-79
2021/12/16 15:55:30;;;;;;;;;;;;;;;;;;10332707;28;20047;-77
2021/12/16 16:00:38;;;;;;;11.95;4.38;;;;;;;;;;10327773;28;19926;-77
2021/12/16 16:05:43;;;;;;;11.00;4.30;;;;;;;;;;10324620;28;20070;-78
2021/12/16 16:10:47;;;;;;;12.50;4.77;;;;;;;;;;10323569;28;20554;-79
2021/12/16 16:15:54;;;;;;;15.53;4.93;;;;;;;;;;10321508;28;20403;-78
2021/12/16 16:20:59;;;;;;;13.77;4.97;;;;;;;;;;10325604;28;20058;-79
2021/12/16 16:26:07;;;;;;;12.10;4.70;;;;;;;;;;10307463;28;20038;-79
2021/12/16 16:31:13;;;;;;;13.07;4.40;;;;;;;;;;10327179;28;20035;-80
2021/12/16 16:36:17;;;;;;;11.53;4.10;;;;;;;;;;10329840;28;20050;-78
2021/12/16 16:41:22;;;;;;;13.60;4.63;;;;;;;;;;10331518;28;20034;-78
2021/12/16 16:46:26;;;;;;;;;;;;;;;;;;10306153;28;20507;-79
2021/12/16 16:51:32;;;;;;;12.60;4.60;;;;;;;;;;10328267;28;20020;-77
2021/12/16 16:56:45;;;;;;;14.73;5.33;;;;;;;;;;10328383;28;20176;-78
2021/12/16 17:01:48;;;;;;;21.70;6.53;;;;;;;;;;10330042;28;20054;-80
2021/12/16 17:06:54;;;;;;;18.80;5.87;;;;;;;;;;10318425;28;20038;-78
2021/12/16 17:11:58;;;;;;;16.27;6.13;;;;;;;;;;10332338;28;20113;-79
2021/12/16 17:17:23;;;;;;;38.30;12.30;;;;;;;;;;10332477;28;20030;-80
2021/12/16 17:22:31;;;;;;;19.58;7.13;;;;;;;;;;10314074;28;20038;-78
2021/12/16 17:27:38;;;;;;;20.77;7.67;;;;;;;;;;10317880;28;20077;-79
2021/12/16 17:32:42;;;;;;;22.10;7.43;;;;;;;;;;10328430;28;20105;-77
2021/12/16 17:37:48;;;;;;;18.07;6.07;;;;;;;;;;10324125;28;20041;-79
2021/12/16 17:42:53;;;;;;;19.33;6.80;;;;;;;;;;10308363;28;20038;-79
2021/12/16 17:47:58;;;;;;;22.50;7.87;;;;;;;;;;10325161;28;20088;-78
2021/12/16 17:53:03;;;;;;;25.17;7.90;;;;;;;;;;10315431;28;20117;-79
2021/12/16 17:58:10;;;;;;;22.80;7.77;;;;;;;;;;10328115;28;20145;-79
2021/12/16 18:03:15;;;;;;;23.07;6.60;;;;;;;;;;10338576;28;20045;-78
2021/12/16 18:08:25;;;;;;;24.47;8.50;;;;;;;;;;10318786;28;20389;-78
2021/12/16 18:13:34;;;;;;;24.87;8.77;;;;;;;;;;10327294;28;20093;-80
2021/12/16 18:18:38;;;;;;;25.60;8.33;;;;;;;;;;10317025;28;20051;-80
2021/12/16 18:23:45;;;;;;;22.17;8.52;;;;;;;;;;10331920;28;20069;-80
2021/12/16 18:28:50;;;;;;;40.03;13.33;;;;;;;;;;10353253;28;20034;-78
2021/12/16 18:33:55;;;;;;;23.47;8.57;;;;;;;;;;10338426;28;20041;-78
2021/12/16 18:39:01;;;;;;;24.13;8.30;;;;;;;;;;10326256;28;20051;-77
2021/12/16 18:44:06;;;;;;;22.90;8.33;;;;;;;;;;10305081;28;20043;-79
2021/12/16 18:49:18;;;;;;;24.77;7.97;;;;;;;;;;10302331;28;20258;-79
2021/12/16 18:54:30;;;;;;;19.77;8.03;;;;;;;;;;10313207;28;20042;-80
2021/12/16 18:59:34;;;;;;;27.83;8.43;;;;;;;;;;10328971;28;20038;-79
2021/12/16 19:04:40;;;;;;;22.10;7.60;;;;;;;;;;10324791;28;20043;-81
2021/12/16 19:09:47;;;;;;;22.30;7.57;;;;;;;;;;10328558;28;20039;-79
2021/12/16 19:14:54;;;;;;;29.03;8.97;;;;;;;;;;10313478;28;20038;-81
2021/12/16 19:19:58;;;;;;;27.10;9.37;;;;;;;;;;10315249;28;20439;-81
2021/12/16 19:25:03;;;;;;;21.25;7.47;;;;;;;;;;10333707;28;20038;-81
2021/12/16 19:30:07;;;;;;;23.80;8.03;;;;;;;;;;10327078;28;20089;-79
2021/12/16 19:35:10;;;;;;;;;;;;;;;;;;10325179;28;20046;-80
2021/12/16 19:40:15;;;;;;;26.40;9.07;;;;;;;;;;10314477;28;19973;-80
2021/12/16 19:45:19;;;;;;;24.50;8.73;;;;;;;;;;10302876;28;20046;-78
2021/12/16 19:50:24;;;;;;;28.40;9.93;;;;;;;;;;10338886;28;20095;-77
2021/12/16 19:55:26;;;;;;;;;;;;;;;;;;10313742;28;20101;-81
2021/12/16 20:00:32;;;;;;;24.43;8.30;;;;;;;;;;10313190;28;19926;-80
2021/12/16 20:05:35;;;;;;;34.30;11.07;;;;;;;;;;10313409;28;20051;-80
2021/12/16 20:10:44;;;;;;;23.47;8.53;;;;;;;;;;10318646;28;20044;-81
2021/12/16 20:15:50;;;;;;;33.03;10.53;;;;;;;;;;10293614;28;20696;-80
2021/12/16 20:20:54;;;;;;;19.00;7.23;;;;;;;;;;10310989;23;20522;-71
2021/12/16 20:26:04;;;;;;;19.90;7.20;;;;;;;;;;10288483;28;20054;-71
2021/12/16 20:31:14;;;;;;;16.50;6.10;;;;;;;;;;10269247;28;20070;-70
2021/12/16 20:36:20;;;;;;;17.00;6.37;;;;;;;;;;10281909;28;20066;-70
2021/12/16 20:41:25;;;;;;;8.13;4.13;;;;;;;;;;10273152;28;20138;-69
2021/12/16 20:46:31;;;;;;;19.43;6.73;;;;;;;;;;10264923;28;20031;-71
2021/12/16 20:51:35;;;;;;;10.40;3.90;;;;;;;;;;10247409;28;20042;-70
2021/12/16 20:56:38;;;;;;;16.43;6.37;;;;;;;;;;10256999;28;20053;-70
2021/12/16 21:01:44;;;;;;;20.83;6.77;;;;;;;;;;10269937;28;20129;-68
2021/12/16 21:06:49;;;;;;;20.47;6.43;;;;;;;;;;10277217;28;20089;-68
2021/12/16 21:11:52;;;;;;;22.60;7.53;;;;;;;;;;10273062;28;20448;-69
2021/12/16 21:16:57;;;;;;;20.67;7.05;;;;;;;;;;10303342;23;20525;-74
2021/12/16 21:22:00;;;;;;;22.13;7.07;;;;;;;;;;10305984;28;20550;-73
2021/12/16 21:27:07;;;;;;;15.97;5.20;;;;;;;;;;10303934;28;20085;-74
2021/12/16 21:32:12;;;;;;;15.27;5.20;;;;;;;;;;10305966;28;20062;-75
2021/12/16 21:37:16;;;;;;;21.10;7.10;;;;;;;;;;10300433;28;20041;-73
2021/12/16 21:42:22;;;;;;;21.13;6.78;;;;;;;;;;10293342;28;20051;-71
2021/12/16 21:47:27;;;;;;;15.77;6.27;;;;;;;;;;10304039;28;20518;-77
2021/12/16 21:52:30;;;;;;;21.93;6.73;;;;;;;;;;10307837;28;20047;-71
2021/12/16 21:57:33;;;;;;;20.07;6.73;;;;;;;;;;10309231;28;20471;-73
2021/12/16 22:02:39;;;;;;;18.27;6.60;;;;;;;;;;10306987;28;20058;-73
2021/12/16 22:07:42;;;;;;;17.07;6.07;;;;;;;;;;10308208;28;20034;-74
2021/12/16 22:12:48;;;;;;;20.00;6.60;;;;;;;;;;10328279;28;20046;-72
2021/12/16 22:17:52;;;;;;;20.00;7.47;;;;;;;;;;10332909;28;20053;-74
2021/12/16 22:22:56;;;;;;;23.37;7.80;;;;;;;;;;10310272;28;20062;-73
2021/12/16 22:27:59;;;;;;;19.65;8.38;;;;;;;;;;10289601;28;20085;-73
2021/12/16 22:33:04;;;;;;;23.23;8.93;;;;;;;;;;10311884;28;20097;-74
2021/12/16 22:38:07;;;;;;;29.83;9.43;;;;;;;;;;10307815;28;20100;-73
2021/12/16 22:43:10;;;;;;;29.43;10.30;;;;;;;;;;10302013;28;20035;-74
2021/12/16 22:48:14;;;;;;;30.70;11.47;;;;;;;;;;10309231;28;20061;-74
2021/12/16 22:53:17;;;;;;;;;;;;;;;;;;10298649;28;20133;-73
2021/12/16 22:58:21;;;;;;;26.33;8.97;;;;;;;;;;10288984;28;19945;-74
2021/12/16 23:03:26;;;;;;;28.70;10.45;;;;;;;;;;10283280;28;20110;-74
2021/12/16 23:08:29;;;;;;;23.27;8.63;;;;;;;;;;10305423;28;20096;-73
2021/12/16 23:13:35;;;;;;;24.20;9.17;;;;;;;;;;10297538;28;20030;-74
2021/12/16 23:24:02;;;;;;;33.17;10.83;;;;;;;;;;10309849;28;20039;-73
2021/12/16 23:29:05;;;;;;;;;;;;;;;;;;10310193;28;20137;-73
2021/12/16 23:34:09;;;;;;;26.63;9.60;;;;;;;;;;10309684;28;19926;-74
2021/12/16 23:39:11;;;;;;;;;;;;;;;;;;10305021;28;20149;-74
2021/12/16 23:55:10;;;;;;;25.60;8.03;;;;;;;;;;10333530;28;20121;-74
